createdAt,value
2018-04-07T00:00:33.885Z,5.80
2018-04-07T00:03:01.471Z,4.93
2018-04-07T00:05:29.879Z,5.33
2018-04-07T00:07:58.254Z,5.47
2018-04-07T00:10:26.675Z,5.90
2018-04-07T00:12:54.274Z,4.90
2018-04-07T00:15:21.898Z,5.77
2018-04-07T00:17:49.503Z,5.30
2018-04-07T00:20:17.751Z,5.33
2018-04-07T00:22:45.303Z,5.40
2018-04-07T00:25:12.911Z,5.50
2018-04-07T00:27:40.492Z,5.00
2018-04-07T00:30:08.937Z,5.37
2018-04-07T00:32:36.545Z,5.10
2018-04-07T00:35:04.165Z,5.20
2018-04-07T00:37:31.838Z,5.37
2018-04-07T00:39:59.453Z,5.50
2018-04-07T00:42:27.066Z,6.03
2018-04-07T00:44:54.617Z,5.90
2018-04-07T00:47:22.214Z,5.47
2018-04-07T00:49:49.766Z,6.00
2018-04-07T00:52:17.334Z,5.90
2018-04-07T00:54:44.873Z,5.60
2018-04-07T00:57:13.214Z,5.97
2018-04-07T00:59:40.750Z,6.07
2018-04-07T01:02:08.333Z,6.10
2018-04-07T01:04:35.882Z,6.27
2018-04-07T01:07:03.447Z,6.13
2018-04-07T01:09:30.982Z,6.10
2018-04-07T01:11:58.545Z,6.40
2018-04-07T01:14:26.091Z,6.43
2018-04-07T01:16:53.663Z,6.13
2018-04-07T01:19:21.212Z,6.67
2018-04-07T01:21:48.750Z,6.60
2018-04-07T01:24:16.334Z,6.07
2018-04-07T01:26:43.874Z,7.07
2018-04-07T01:29:11.446Z,5.97
2018-04-07T01:31:38.986Z,6.27
2018-04-07T01:34:07.322Z,6.60
2018-04-07T01:36:34.880Z,5.63
2018-04-07T01:39:02.440Z,5.70
2018-04-07T01:41:29.980Z,6.23
2018-04-07T01:43:57.563Z,5.70
2018-04-07T01:46:25.118Z,5.63
2018-04-07T01:48:52.674Z,6.10
2018-04-07T01:51:20.209Z,6.07
2018-04-07T01:53:47.780Z,5.57
2018-04-07T01:56:15.339Z,6.83
2018-04-07T01:58:42.934Z,6.07
2018-04-07T02:01:10.498Z,5.80
2018-04-07T02:03:38.103Z,6.27
2018-04-07T02:06:05.710Z,5.30
2018-04-07T02:08:33.310Z,6.30
2018-04-07T02:11:01.712Z,5.13
2018-04-07T02:13:29.287Z,5.20
2018-04-07T02:15:56.886Z,5.43
2018-04-07T02:18:24.507Z,5.00
2018-04-07T02:20:52.120Z,5.20
2018-04-07T02:23:19.718Z,6.13
2018-04-07T02:25:47.352Z,6.00
2018-04-07T02:28:14.965Z,5.53
2018-04-07T02:30:42.552Z,6.03
2018-04-07T02:33:10.142Z,5.63
2018-04-07T02:35:37.779Z,6.53
2018-04-07T02:38:05.371Z,5.50
2018-04-07T02:40:33.696Z,5.70
2018-04-07T02:43:01.323Z,5.27
2018-04-07T02:45:28.930Z,5.40
2018-04-07T02:47:56.558Z,5.20
2018-04-07T02:50:24.147Z,5.87
2018-04-07T02:52:51.770Z,5.60
2018-04-07T02:55:19.410Z,5.33
2018-04-07T02:57:47.771Z,5.90
2018-04-07T03:00:15.370Z,5.30
2018-04-07T03:02:42.949Z,5.70
2018-04-07T03:05:10.488Z,5.40
2018-04-07T03:07:38.090Z,4.87
2018-04-07T03:10:05.620Z,5.47
2018-04-07T03:12:33.186Z,5.13
2018-04-07T03:15:00.722Z,5.13
2018-04-07T03:17:28.307Z,5.30
2018-04-07T03:19:55.843Z,5.17
2018-04-07T03:22:24.178Z,5.40
2018-04-07T03:24:51.719Z,5.40
2018-04-07T03:27:19.266Z,5.33
2018-04-07T03:29:46.839Z,4.80
2018-04-07T03:32:14.398Z,5.00
2018-04-07T03:34:41.970Z,5.13
2018-04-07T03:37:09.506Z,5.23
2018-04-07T03:39:37.087Z,4.97
2018-04-07T03:42:04.618Z,5.13
2018-04-07T03:44:32.175Z,4.50
2018-04-07T03:46:59.709Z,4.57
2018-04-07T03:49:27.286Z,5.63
2018-04-07T03:51:54.822Z,5.27
2018-04-07T03:54:23.147Z,5.30
2018-04-07T03:56:50.687Z,4.90
2018-04-07T03:59:18.245Z,4.93
2018-04-07T04:01:45.782Z,5.10
2018-04-07T04:04:14.226Z,5.20
2018-04-07T04:06:41.798Z,5.27
2018-04-07T04:09:09.672Z,6.53
2018-04-07T04:11:37.274Z,5.23
2018-04-07T04:14:04.899Z,5.63
2018-04-07T04:16:32.447Z,5.13
2018-04-07T04:19:00.085Z,6.10
2018-04-07T04:21:27.676Z,5.30
2018-04-07T04:23:55.273Z,5.87
2018-04-07T04:26:22.883Z,5.70
2018-04-07T04:28:50.505Z,6.60
2018-04-07T04:31:18.130Z,5.93
2018-04-07T04:33:45.748Z,6.27
2018-04-07T04:36:13.413Z,5.90
2018-04-07T04:38:40.998Z,5.77
2018-04-07T04:41:08.658Z,5.50
2018-04-07T04:43:36.241Z,5.47
2018-04-07T04:46:04.630Z,5.67
2018-04-07T04:48:32.954Z,5.27
2018-04-07T04:51:00.614Z,6.10
2018-04-07T04:53:28.243Z,6.03
2018-04-07T04:55:55.843Z,6.00
2018-04-07T04:58:23.490Z,5.63
2018-04-07T05:00:51.154Z,5.53
2018-04-07T05:03:18.780Z,6.13
2018-04-07T05:05:47.173Z,6.10
2018-04-07T05:08:14.779Z,6.10
2018-04-07T05:10:42.360Z,5.40
2018-04-07T05:13:09.913Z,6.13
2018-04-07T05:15:37.448Z,5.60
2018-04-07T05:18:05.006Z,5.70
2018-04-07T05:20:32.551Z,6.80
2018-04-07T05:23:00.118Z,6.13
2018-04-07T05:25:27.661Z,6.70
2018-04-07T05:27:55.241Z,7.70
2018-04-07T05:30:22.786Z,7.43
2018-04-07T05:32:50.355Z,7.17
2018-04-07T05:35:17.950Z,9.47
2018-04-07T05:37:45.591Z,7.03
2018-04-07T05:40:13.194Z,6.40
2018-04-07T05:42:41.562Z,6.23
2018-04-07T05:45:09.130Z,6.03
2018-04-07T05:47:37.513Z,6.20
2018-04-07T05:50:05.879Z,6.80
2018-04-07T05:52:33.546Z,6.13
2018-04-07T05:55:01.931Z,6.73
2018-04-07T05:57:30.310Z,7.00
2018-04-07T05:59:58.684Z,6.83
2018-04-07T06:02:26.274Z,6.90
2018-04-07T06:04:53.891Z,6.50
2018-04-07T06:07:21.482Z,6.77
2018-04-07T06:09:49.833Z,6.70
2018-04-07T06:12:17.433Z,6.70
2018-04-07T06:14:45.080Z,7.20
2018-04-07T06:17:13.430Z,7.67
2018-04-07T06:19:41.061Z,6.37
2018-04-07T06:22:08.660Z,7.70
2018-04-07T06:24:36.271Z,7.43
2018-04-07T06:27:03.935Z,7.60
2018-04-07T06:29:31.574Z,7.30
2018-04-07T06:31:59.213Z,6.17
2018-04-07T06:34:26.880Z,6.43
2018-04-07T06:36:54.454Z,7.37
2018-04-07T06:39:22.883Z,6.00
2018-04-07T06:41:50.481Z,6.87
2018-04-07T06:44:18.868Z,7.23
2018-04-07T06:46:46.478Z,7.40
2018-04-07T06:49:14.042Z,8.30
2018-04-07T06:51:41.682Z,7.53
2018-04-07T06:54:09.282Z,7.17
2018-04-07T06:56:36.877Z,7.43
2018-04-07T06:59:05.234Z,7.23
2018-04-07T07:01:32.882Z,8.13
2018-04-07T07:04:00.469Z,9.00
2018-04-07T07:06:28.887Z,10.03
2018-04-07T07:08:57.341Z,8.43
2018-04-07T07:11:25.719Z,7.80
2018-04-07T07:13:54.106Z,8.43
2018-04-07T07:16:22.479Z,8.27
2018-04-07T07:18:50.093Z,8.27
2018-04-07T07:21:17.748Z,21.90
2018-04-07T07:23:46.120Z,10.50
2018-04-07T07:26:13.720Z,8.67
2018-04-07T07:28:41.355Z,8.60
2018-04-07T07:31:08.953Z,7.43
2018-04-07T07:33:37.357Z,8.20
2018-04-07T07:36:04.926Z,7.70
2018-04-07T07:38:32.566Z,7.30
2018-04-07T07:41:00.997Z,6.70
2018-04-07T07:43:28.574Z,8.23
2018-04-07T07:45:56.138Z,8.07
2018-04-07T07:48:23.702Z,6.33
2018-04-07T07:50:51.266Z,7.73
2018-04-07T07:53:18.850Z,7.57
2018-04-07T07:55:47.167Z,6.80
2018-04-07T07:58:14.740Z,6.90
2018-04-07T08:00:42.384Z,7.93
2018-04-07T08:03:10.000Z,6.67
2018-04-07T08:05:37.636Z,7.47
2018-04-07T08:08:05.247Z,7.83
2018-04-07T08:10:32.777Z,6.87
2018-04-07T08:13:00.350Z,6.70
2018-04-07T08:15:28.670Z,7.67
2018-04-07T08:17:56.238Z,7.77
2018-04-07T08:20:23.792Z,7.00
2018-04-07T08:22:51.362Z,7.50
2018-04-07T08:25:18.901Z,8.20
2018-04-07T08:27:46.442Z,7.40
2018-04-07T08:30:14.020Z,6.90
2018-04-07T08:32:41.558Z,7.43
2018-04-07T08:35:09.118Z,6.77
2018-04-07T08:37:36.669Z,6.53
2018-04-07T08:40:04.997Z,6.87
2018-04-07T08:42:33.328Z,7.23
2018-04-07T08:45:01.703Z,8.00
2018-04-07T08:47:30.028Z,7.63
2018-04-07T08:49:57.634Z,6.70
2018-04-07T08:52:25.945Z,7.13
2018-04-07T08:54:53.572Z,7.47
2018-04-07T08:57:21.926Z,7.40
2018-04-07T08:59:49.548Z,7.43
2018-04-07T09:02:17.072Z,7.03
2018-04-07T09:04:45.382Z,7.47
2018-04-07T09:07:12.974Z,7.27
2018-04-07T09:09:40.600Z,7.33
2018-04-07T09:12:08.298Z,7.13
2018-04-07T09:14:36.675Z,6.93
2018-04-07T09:17:04.327Z,7.00
2018-04-07T09:19:31.906Z,5.90
2018-04-07T09:21:59.516Z,5.93
2018-04-07T09:24:27.135Z,5.43
2018-04-07T09:26:54.738Z,5.70
2018-04-07T09:29:22.302Z,5.90
2018-04-07T09:31:49.900Z,6.13
2018-04-07T09:34:17.526Z,6.23
2018-04-07T09:36:45.239Z,5.70
2018-04-07T09:39:12.835Z,5.30
2018-04-07T09:41:41.211Z,5.53
2018-04-07T09:44:09.510Z,4.87
2018-04-07T09:46:37.062Z,4.97
2018-04-07T09:49:04.624Z,5.30
2018-04-07T09:51:32.177Z,5.30
2018-04-07T09:53:59.750Z,4.63
2018-04-07T09:56:27.291Z,4.57
2018-04-07T09:58:54.866Z,4.70
2018-04-07T10:01:28.063Z,3.93
2018-04-07T10:03:55.667Z,4.60
2018-04-07T10:06:23.235Z,4.00
2018-04-07T10:08:50.804Z,4.53
2018-04-07T10:11:18.393Z,3.53
2018-04-07T10:13:45.983Z,3.60
2018-04-07T10:16:13.535Z,3.80
2018-04-07T10:18:41.103Z,3.97
2018-04-07T10:21:08.634Z,3.87
2018-04-07T10:23:36.986Z,4.03
2018-04-07T10:26:04.530Z,4.03
2018-04-07T10:28:32.079Z,3.70
2018-04-07T10:30:59.658Z,4.13
2018-04-07T10:33:27.211Z,3.57
2018-04-07T10:35:54.776Z,4.03
2018-04-07T10:38:22.309Z,3.60
2018-04-07T10:40:49.881Z,3.73
2018-04-07T10:43:17.423Z,3.53
2018-04-07T10:45:44.988Z,3.60
2018-04-07T10:48:12.534Z,3.50
2018-04-07T10:50:40.107Z,4.13
2018-04-07T10:53:07.651Z,3.20
2018-04-07T10:55:35.210Z,3.97
2018-04-07T10:58:02.743Z,3.00
2018-04-07T11:00:31.063Z,2.60
2018-04-07T11:02:58.622Z,3.20
2018-04-07T11:05:26.183Z,3.07
2018-04-07T11:07:54.581Z,2.90
2018-04-07T11:10:22.221Z,2.40
2018-04-07T11:12:49.839Z,3.17
2018-04-07T11:15:18.186Z,2.93
2018-04-07T11:17:45.826Z,2.10
2018-04-07T11:20:13.417Z,2.30
2018-04-07T11:22:41.065Z,2.27
2018-04-07T11:25:08.659Z,2.33
2018-04-07T11:27:37.006Z,2.00
2018-04-07T11:30:04.702Z,2.43
2018-04-07T11:32:32.317Z,2.67
2018-04-07T11:34:59.930Z,2.07
2018-04-07T11:37:28.286Z,3.03
2018-04-07T11:39:55.907Z,2.60
2018-04-07T11:42:23.542Z,2.73
2018-04-07T11:44:51.204Z,2.63
2018-04-07T11:47:18.801Z,3.07
2018-04-07T11:49:46.366Z,3.10
2018-04-07T11:52:13.921Z,2.70
2018-04-07T11:54:41.502Z,2.60
2018-04-07T11:57:09.085Z,2.77
2018-04-07T11:59:36.694Z,3.03
2018-04-07T12:02:04.253Z,2.80
2018-04-07T12:04:31.788Z,3.10
2018-04-07T12:07:00.135Z,2.90
2018-04-07T12:09:27.688Z,3.30
2018-04-07T12:11:55.270Z,2.70
2018-04-07T12:14:23.573Z,2.90
2018-04-07T12:16:51.160Z,2.73
2018-04-07T12:19:18.705Z,2.73
2018-04-07T12:21:46.268Z,3.67
2018-04-07T12:24:13.809Z,2.80
2018-04-07T12:26:41.379Z,2.50
2018-04-07T12:29:08.948Z,2.73
2018-04-07T12:31:36.626Z,2.40
2018-04-07T12:34:04.199Z,2.50
2018-04-07T12:36:31.796Z,2.40
2018-04-07T12:39:00.181Z,2.37
2018-04-07T12:41:28.581Z,2.07
2018-04-07T12:43:56.177Z,2.20
2018-04-07T12:46:23.808Z,1.87
2018-04-07T12:48:51.401Z,1.77
2018-04-07T12:51:19.000Z,2.17
2018-04-07T12:53:47.358Z,2.00
2018-04-07T12:56:14.961Z,1.60
2018-04-07T12:58:42.598Z,1.77
2018-04-07T13:01:10.983Z,1.70
2018-04-07T13:03:38.610Z,1.60
2018-04-07T13:06:07.114Z,1.60
2018-04-07T13:08:34.767Z,1.70
2018-04-07T13:11:02.327Z,1.60
2018-04-07T13:13:29.955Z,1.70
2018-04-07T13:15:57.566Z,1.37
2018-04-07T13:18:25.204Z,1.83
2018-04-07T13:20:52.769Z,1.30
2018-04-07T13:23:20.379Z,1.57
2018-04-07T13:25:47.979Z,1.57
2018-04-07T13:28:15.601Z,1.40
2018-04-07T13:30:43.196Z,1.50
2018-04-07T13:33:10.842Z,1.63
2018-04-07T13:35:38.382Z,1.50
2018-04-07T13:38:05.948Z,1.73
2018-04-07T13:40:33.488Z,1.50
2018-04-07T13:43:01.055Z,1.70
2018-04-07T13:45:28.620Z,1.60
2018-04-07T13:47:56.167Z,1.77
2018-04-07T13:50:23.723Z,1.50
2018-04-07T13:52:51.260Z,1.53
2018-04-07T13:55:18.820Z,1.97
2018-04-07T13:57:46.357Z,1.67
2018-04-07T14:00:13.914Z,1.90
2018-04-07T14:02:41.455Z,1.90
2018-04-07T14:05:09.065Z,1.80
2018-04-07T14:07:37.410Z,1.50
2018-04-07T14:10:05.022Z,2.10
2018-04-07T14:12:32.642Z,1.90
2018-04-07T14:15:00.223Z,1.50
2018-04-07T14:17:27.890Z,1.43
2018-04-07T14:19:56.259Z,1.93
2018-04-07T14:22:23.905Z,1.90
2018-04-07T14:24:51.515Z,1.67
2018-04-07T14:27:19.176Z,2.47
2018-04-07T14:29:46.754Z,1.80
2018-04-07T14:32:14.405Z,1.67
2018-04-07T14:34:42.014Z,1.93
2018-04-07T14:37:09.638Z,2.40
2018-04-07T14:39:37.173Z,2.00
2018-04-07T14:42:05.511Z,2.20
2018-04-07T14:44:33.074Z,2.23
2018-04-07T14:47:00.701Z,1.90
2018-04-07T14:49:28.240Z,1.70
2018-04-07T14:51:55.811Z,2.00
2018-04-07T14:54:23.365Z,2.00
2018-04-07T14:56:50.962Z,1.70
2018-04-07T14:59:18.497Z,1.90
2018-04-07T15:01:46.044Z,1.73
2018-04-07T15:04:13.618Z,2.10
2018-04-07T15:06:41.157Z,2.43
2018-04-07T15:09:09.554Z,2.07
2018-04-07T15:11:37.134Z,1.87
2018-04-07T15:14:04.749Z,1.97
2018-04-07T15:16:32.336Z,1.83
2018-04-07T15:18:59.954Z,2.00
2018-04-07T15:21:27.574Z,2.20
2018-04-07T15:23:55.184Z,1.70
2018-04-07T15:26:22.782Z,1.90
2018-04-07T15:28:50.435Z,2.17
2018-04-07T15:31:18.006Z,2.40
2018-04-07T15:33:45.663Z,2.43
2018-04-07T15:36:13.215Z,2.47
2018-04-07T15:38:40.775Z,2.17
2018-04-07T15:41:08.333Z,2.23
2018-04-07T15:43:35.894Z,2.27
2018-04-07T15:46:03.471Z,2.53
2018-04-07T15:48:31.014Z,2.30
2018-04-07T15:50:58.622Z,1.77
2018-04-07T15:53:26.180Z,1.63
2018-04-07T15:55:53.757Z,2.60
2018-04-07T15:58:21.293Z,2.30
2018-04-07T16:00:48.874Z,2.03
2018-04-07T16:03:16.462Z,2.20
2018-04-07T16:05:44.866Z,2.60
2018-04-07T16:08:12.426Z,2.00
2018-04-07T16:10:40.018Z,2.07
2018-04-07T16:13:07.653Z,2.20
2018-04-07T16:15:35.224Z,2.73
2018-04-07T16:18:02.835Z,1.93
2018-04-07T16:20:31.235Z,2.60
2018-04-07T16:22:58.874Z,2.23
2018-04-07T16:25:27.183Z,2.40
2018-04-07T16:27:54.746Z,2.30
2018-04-07T16:30:22.290Z,2.00
2018-04-07T16:32:49.860Z,2.10
2018-04-07T16:35:17.440Z,2.27
2018-04-07T16:37:45.023Z,2.43
2018-04-07T16:40:12.667Z,2.20
2018-04-07T16:42:40.303Z,2.37
2018-04-07T16:45:07.890Z,1.87
2018-04-07T16:47:35.503Z,2.13
2018-04-07T16:50:03.878Z,2.23
2018-04-07T16:52:32.296Z,2.30
2018-04-07T16:55:00.675Z,2.63
2018-04-07T16:57:28.247Z,1.63
2018-04-07T16:59:55.917Z,2.57
2018-04-07T17:02:23.596Z,2.47
2018-04-07T17:04:51.222Z,2.53
2018-04-07T17:07:18.816Z,2.57
2018-04-07T17:09:46.459Z,2.43
2018-04-07T17:12:14.036Z,2.30
2018-04-07T17:14:41.671Z,2.43
2018-04-07T17:17:09.285Z,2.27
2018-04-07T17:19:36.846Z,2.40
2018-04-07T17:22:04.424Z,2.20
2018-04-07T17:24:32.722Z,2.20
2018-04-07T17:27:00.295Z,2.20
2018-04-07T17:29:27.838Z,2.87
2018-04-07T17:31:55.406Z,4.27
2018-04-07T17:34:22.947Z,11.27
2018-04-07T17:36:50.530Z,19.43
2018-04-07T17:39:18.076Z,5.23
2018-04-07T17:41:45.655Z,8.53
2018-04-07T17:44:13.198Z,4.70
2018-04-07T17:46:40.797Z,7.60
2018-04-07T17:49:08.341Z,3.80
2018-04-07T17:51:35.963Z,2.67
2018-04-07T17:54:03.511Z,3.43
2018-04-07T17:56:31.077Z,2.70
2018-04-07T17:58:59.389Z,6.17
2018-04-07T18:01:26.962Z,7.80
2018-04-07T18:03:54.506Z,4.13
2018-04-07T18:06:22.082Z,2.70
2018-04-07T18:08:49.666Z,2.73
2018-04-07T18:11:17.290Z,5.17
2018-04-07T18:13:44.903Z,3.33
2018-04-07T18:16:12.571Z,3.93
2018-04-07T18:18:40.940Z,2.40
2018-04-07T18:21:08.571Z,2.80
2018-04-07T18:23:36.199Z,2.50
2018-04-07T18:26:03.814Z,2.70
2018-04-07T18:28:31.436Z,2.77
2018-04-07T18:30:58.987Z,3.50
2018-04-07T18:33:26.584Z,4.43
2018-04-07T18:35:54.115Z,4.00
2018-04-07T18:38:21.682Z,2.67
2018-04-07T18:40:49.218Z,3.30
2018-04-07T18:43:17.554Z,3.37
2018-04-07T18:45:45.105Z,3.93
2018-04-07T18:48:12.672Z,2.90
2018-04-07T18:50:40.231Z,2.87
2018-04-07T18:53:07.814Z,3.20
2018-04-07T18:55:35.356Z,2.90
2018-04-07T18:58:02.926Z,2.40
2018-04-07T19:00:30.482Z,3.00
2018-04-07T19:02:58.067Z,3.60
2018-04-07T19:05:26.370Z,4.67
2018-04-07T19:07:53.913Z,3.77
2018-04-07T19:10:21.479Z,3.67
2018-04-07T19:12:49.022Z,2.70
2018-04-07T19:15:17.354Z,3.33
2018-04-07T19:17:44.916Z,2.53
2018-04-07T19:20:12.491Z,3.03
2018-04-07T19:22:40.030Z,3.00
2018-04-07T19:25:08.373Z,2.90
2018-04-07T19:27:35.927Z,3.43
2018-04-07T19:30:03.542Z,2.83
2018-04-07T19:32:31.095Z,3.60
2018-04-07T19:34:58.676Z,3.83
2018-04-07T19:37:26.219Z,3.70
2018-04-07T19:39:53.825Z,3.93
2018-04-07T19:42:22.139Z,4.00
2018-04-07T19:44:49.736Z,3.43
2018-04-07T19:47:17.311Z,3.00
2018-04-07T19:49:44.886Z,3.00
2018-04-07T19:52:12.432Z,3.37
2018-04-07T19:54:40.771Z,3.80
2018-04-07T19:57:08.309Z,4.07
2018-04-07T19:59:35.858Z,3.17
2018-04-07T20:02:03.418Z,3.50
2018-04-07T20:04:30.971Z,3.97
2018-04-07T20:06:58.538Z,3.50
2018-04-07T20:09:26.129Z,3.83
2018-04-07T20:11:54.457Z,3.47
2018-04-07T20:14:22.783Z,3.70
2018-04-07T20:16:50.387Z,3.90
2018-04-07T20:19:18.702Z,3.63
2018-04-07T20:21:46.271Z,2.83
2018-04-07T20:24:13.815Z,9.77
2018-04-07T20:26:41.381Z,5.77
2018-04-07T20:29:08.931Z,3.70
2018-04-07T20:31:36.518Z,4.17
2018-04-07T20:34:04.105Z,3.80
2018-04-07T20:36:31.683Z,4.60
2018-04-07T20:38:59.999Z,3.93
2018-04-07T20:41:27.555Z,3.03
2018-04-07T20:43:55.122Z,3.77
2018-04-07T20:46:22.666Z,3.60
2018-04-07T20:48:50.251Z,3.13
2018-04-07T20:51:17.804Z,3.73
2018-04-07T20:53:45.477Z,5.00
2018-04-07T20:56:13.063Z,3.77
2018-04-07T20:58:40.699Z,3.33
2018-04-07T21:01:08.268Z,3.83
2018-04-07T21:03:35.903Z,8.40
2018-04-07T21:06:03.553Z,4.80
2018-04-07T21:08:31.182Z,3.83
2018-04-07T21:10:58.755Z,3.93
2018-04-07T21:13:26.415Z,4.70
2018-04-07T21:15:54.050Z,3.23
2018-04-07T21:18:21.643Z,4.00
2018-04-07T21:20:50.036Z,3.53
2018-04-07T21:23:17.637Z,5.53
2018-04-07T21:25:45.264Z,3.90
2018-04-07T21:28:12.888Z,2.67
2018-04-07T21:30:40.535Z,2.70
2018-04-07T21:33:08.155Z,2.93
2018-04-07T21:35:35.853Z,2.80
2018-04-07T21:38:03.396Z,3.30
2018-04-07T21:40:31.014Z,3.17
2018-04-07T21:42:58.618Z,3.43
2018-04-07T21:45:26.230Z,3.13
2018-04-07T21:47:54.595Z,2.93
2018-04-07T21:50:22.154Z,3.60
2018-04-07T21:52:49.745Z,3.43
2018-04-07T21:55:17.318Z,3.30
2018-04-07T21:57:44.903Z,3.67
2018-04-07T22:00:12.502Z,3.10
2018-04-07T22:02:40.053Z,3.50
2018-04-07T22:05:07.614Z,3.00
2018-04-07T22:07:35.162Z,3.17
2018-04-07T22:10:02.760Z,2.93
2018-04-07T22:12:31.067Z,3.70
2018-04-07T22:14:58.619Z,3.60
2018-04-07T22:17:26.190Z,3.00
2018-04-07T22:19:53.746Z,3.53
2018-04-07T22:22:21.320Z,3.77
2018-04-07T22:24:48.916Z,3.80
2018-04-07T22:27:16.493Z,3.87
2018-04-07T22:29:44.031Z,4.63
2018-04-07T22:32:11.598Z,3.93
2018-04-07T22:34:39.125Z,3.67
2018-04-07T22:37:06.690Z,3.23
2018-04-07T22:39:34.241Z,3.93
2018-04-07T22:42:01.807Z,3.70
2018-04-07T22:44:29.353Z,3.67
2018-04-07T22:46:56.931Z,3.50
2018-04-07T22:49:25.239Z,3.37
2018-04-07T22:51:52.812Z,3.67
2018-04-07T22:54:21.113Z,3.43
2018-04-07T22:56:48.728Z,3.90
2018-04-07T22:59:16.310Z,3.87
2018-04-07T23:01:44.617Z,3.73
2018-04-07T23:04:12.183Z,3.53
2018-04-07T23:06:39.742Z,3.20
2018-04-07T23:09:07.315Z,3.30
2018-04-07T23:11:34.865Z,3.20
2018-04-07T23:14:02.446Z,2.93
2018-04-07T23:16:29.988Z,2.90
2018-04-07T23:18:57.595Z,3.90
2018-04-07T23:21:25.157Z,2.83
2018-04-07T23:23:52.830Z,3.77
2018-04-07T23:26:21.149Z,3.43
2018-04-07T23:28:48.737Z,3.57
2018-04-07T23:31:16.282Z,3.80
2018-04-07T23:33:43.866Z,3.40
2018-04-07T23:36:11.413Z,3.60
2018-04-07T23:38:38.965Z,4.20
2018-04-07T23:41:07.358Z,3.77
2018-04-07T23:43:34.893Z,3.47
2018-04-07T23:46:02.472Z,3.70
2018-04-07T23:48:30.013Z,3.27
2018-04-07T23:50:57.575Z,3.80
2018-04-07T23:53:25.113Z,3.10
2018-04-07T23:55:52.681Z,3.40
2018-04-07T23:58:20.223Z,3.20
